createdAt,value
2022-08-01T00:01:39.611Z,101593.42
2022-08-01T00:04:09.770Z,101590.55
2022-08-01T00:06:39.644Z,101591.72
2022-08-01T00:09:09.809Z,101595.23000000001
2022-08-01T00:11:39.626Z,101594.45
2022-08-01T00:14:09.633Z,101595.36
2022-08-01T00:16:39.640Z,101596.95
2022-08-01T00:19:09.527Z,101602.31
2022-08-01T00:21:39.610Z,101597.63
2022-08-01T00:24:09.811Z,101603.53
2022-08-01T00:26:39.556Z,101604.17
2022-08-01T00:29:11.642Z,101602.34
2022-08-01T00:31:39.813Z,101602.47
2022-08-01T00:34:09.559Z,101599.36
2022-08-01T00:39:09.653Z,101599.41
2022-08-01T00:41:39.836Z,101599.72
2022-08-01T00:44:09.796Z,101595.47
2022-08-01T00:49:10.529Z,101600.81
2022-08-01T00:54:09.832Z,101604.90999999999
2022-08-01T00:56:39.635Z,101601.47
2022-08-01T00:59:11.640Z,101601.67
2022-08-01T01:01:40.190Z,101608.75
2022-08-01T01:06:48.678Z,101614.39
2022-08-01T01:09:21.074Z,101610.33
2022-08-01T01:14:16.764Z,101608.62
2022-08-01T01:16:42.463Z,101606.93
2022-08-01T01:19:16.252Z,101607.24
2022-08-01T01:26:48.089Z,101602.97
2022-08-01T01:29:15.768Z,101611.15999999999
2022-08-01T01:31:44.160Z,101608.4
2022-08-01T01:34:12.796Z,101607.73000000001
2022-08-01T01:36:40.872Z,101608.8
2022-08-01T01:39:11.041Z,101605.98
2022-08-01T01:46:41.860Z,101621.48
2022-08-01T01:49:11.637Z,101624.36
2022-08-01T01:51:42.491Z,101624.51
2022-08-01T01:56:48.704Z,101624.81
2022-08-01T01:59:09.734Z,101624.3
2022-08-01T02:02:05.394Z,101624.87999999999
2022-08-01T02:06:40.600Z,101630.55
2022-08-01T02:09:10.292Z,101635.63
2022-08-01T02:11:59.214Z,101634.42
2022-08-01T02:14:11.839Z,101638.17
2022-08-01T02:21:44.787Z,101630.86
2022-08-01T02:24:16.880Z,101626.81999999999
2022-08-01T02:26:44.401Z,101626.79000000001
2022-08-01T02:29:15.036Z,101623.97
2022-08-01T02:31:44.943Z,101624.5
2022-08-01T02:34:13.174Z,101631.22
2022-08-01T02:39:13.277Z,101629.40999999999
2022-08-01T02:41:42.671Z,101635.0
2022-08-01T02:44:14.975Z,101638.2
2022-08-01T02:46:44.613Z,101642.97
2022-08-01T02:49:11.888Z,101649.87999999999
2022-08-01T02:51:41.222Z,101651.98000000001
2022-08-01T02:54:11.366Z,101653.91
2022-08-01T02:59:14.612Z,101665.55
2022-08-01T03:06:41.364Z,101672.22
2022-08-01T03:09:10.790Z,101669.26999999999
2022-08-01T03:14:12.861Z,101666.97
2022-08-01T03:16:42.467Z,101670.84
2022-08-01T03:19:11.556Z,101669.86
2022-08-01T03:21:41.072Z,101668.98999999999
2022-08-01T03:24:11.536Z,101673.49
2022-08-01T03:26:41.785Z,101673.32
2022-08-01T03:29:14.638Z,101673.0
2022-08-01T03:31:43.616Z,101675.0
2022-08-01T03:39:13.064Z,101689.39
2022-08-01T03:41:43.634Z,101693.40999999999
2022-08-01T03:44:15.283Z,101691.03
2022-08-01T03:46:43.726Z,101684.81
2022-08-01T03:49:13.524Z,101686.51999999999
2022-08-01T03:51:40.644Z,101687.05
2022-08-01T03:54:10.982Z,101691.09999999999
2022-08-01T03:56:41.895Z,101689.09
2022-08-01T03:59:10.502Z,101686.93
2022-08-01T04:01:40.090Z,101692.58
2022-08-01T04:04:09.975Z,101698.64
2022-08-01T04:06:40.480Z,101703.59
2022-08-01T04:09:13.602Z,101703.44
2022-08-01T04:14:09.675Z,101710.05
2022-08-01T04:16:39.800Z,101714.76
2022-08-01T04:19:09.874Z,101717.86
2022-08-01T04:21:40.198Z,101715.61
2022-08-01T04:26:40.954Z,101717.69
2022-08-01T04:29:11.803Z,101724.19
2022-08-01T04:31:44.318Z,101731.08
2022-08-01T04:34:14.177Z,101731.09
2022-08-01T04:36:41.996Z,101735.13
2022-08-01T04:39:10.945Z,101735.77
2022-08-01T04:41:40.690Z,101742.97
2022-08-01T04:44:09.745Z,101748.32
2022-08-01T04:46:40.618Z,101753.36
2022-08-01T04:49:11.778Z,101759.09
2022-08-01T04:56:40.117Z,101769.32
2022-08-01T04:59:20.346Z,101770.92
2022-08-01T05:01:39.747Z,101768.66
2022-08-01T05:06:39.907Z,101777.65000000001
2022-08-01T05:09:09.988Z,101777.68
2022-08-01T05:11:39.720Z,101780.67
2022-08-01T05:14:09.735Z,101790.19
2022-08-01T05:16:39.712Z,101789.86
2022-08-01T05:19:09.864Z,101795.17
2022-08-01T05:21:39.812Z,101791.41
2022-08-01T05:26:40.139Z,101791.25
2022-08-01T05:29:09.709Z,101791.89
2022-08-01T05:31:39.727Z,101796.33
2022-08-01T05:39:10.016Z,101796.17
2022-08-01T05:41:40.543Z,101797.91
2022-08-01T05:44:09.953Z,101797.79999999999
2022-08-01T05:46:39.959Z,101804.08
2022-08-01T05:51:40.144Z,101800.57
2022-08-01T05:54:09.693Z,101803.2
2022-08-01T05:56:39.991Z,101808.09000000001
2022-08-01T05:59:09.821Z,101812.11
2022-08-01T06:01:39.947Z,101812.14
2022-08-01T06:04:09.993Z,101812.08
2022-08-01T06:06:39.694Z,101811.95
2022-08-01T06:09:09.844Z,101812.51999999999
2022-08-01T06:11:39.849Z,101813.4
2022-08-01T06:14:10.098Z,101813.76000000001
2022-08-01T06:16:39.904Z,101810.11
2022-08-01T06:19:09.732Z,101808.69
2022-08-01T06:21:39.780Z,101809.16
2022-08-01T06:24:09.760Z,101812.58
2022-08-01T06:26:39.848Z,101814.67
2022-08-01T06:29:10.205Z,101815.01
2022-08-01T06:31:39.778Z,101819.72
2022-08-01T06:34:09.883Z,101819.51000000001
2022-08-01T06:36:39.777Z,101823.53
2022-08-01T06:39:09.927Z,101827.72
2022-08-01T06:41:41.481Z,101827.36
2022-08-01T06:44:09.737Z,101832.62
2022-08-01T06:46:39.775Z,101832.64
2022-08-01T06:49:09.986Z,101829.40999999999
2022-08-01T06:51:40.309Z,101833.37
2022-08-01T06:54:09.791Z,101837.06
2022-08-01T06:56:39.801Z,101843.68
2022-08-01T06:59:10.009Z,101850.84000000001
2022-08-01T07:01:39.839Z,101843.66
2022-08-01T07:04:09.776Z,101850.06
2022-08-01T07:06:39.895Z,101840.32999999999
2022-08-01T07:09:14.211Z,101846.41
2022-08-01T07:11:39.753Z,101844.51000000001
2022-08-01T07:14:09.789Z,101848.67
2022-08-01T07:16:39.853Z,101846.33
2022-08-01T07:19:09.836Z,101845.0
2022-08-01T07:21:41.339Z,101848.46
2022-08-01T07:24:15.151Z,101850.81
2022-08-01T07:26:41.165Z,101849.83
2022-08-01T07:29:09.754Z,101850.98000000001
2022-08-01T07:31:39.909Z,101855.53
2022-08-01T07:34:09.943Z,101857.26
2022-08-01T07:36:39.775Z,101863.89
2022-08-01T07:39:09.917Z,101861.45
2022-08-01T07:41:52.807Z,101862.23
2022-08-01T07:44:09.809Z,101860.94
2022-08-01T07:46:39.890Z,101863.25
2022-08-01T07:49:10.018Z,101870.92
2022-08-01T07:51:40.026Z,101877.66
2022-08-01T07:54:09.758Z,101881.03
2022-08-01T07:56:39.963Z,101878.68999999999
2022-08-01T07:59:09.998Z,101889.59
2022-08-01T08:01:39.954Z,101891.36
2022-08-01T08:04:09.767Z,101885.05
2022-08-01T08:06:41.284Z,101892.56
2022-08-01T08:09:09.808Z,101894.06
2022-08-01T08:11:44.565Z,101901.14
2022-08-01T08:14:10.065Z,101903.09
2022-08-01T08:16:39.787Z,101900.73
2022-08-01T08:19:10.268Z,101899.97
2022-08-01T08:21:40.245Z,101901.83
2022-08-01T08:24:20.417Z,101904.39
2022-08-01T08:26:39.767Z,101904.88
2022-08-01T08:29:09.817Z,101902.84
2022-08-01T08:31:51.719Z,101905.8
2022-08-01T08:34:10.283Z,101906.26
2022-08-01T08:36:40.114Z,101912.75
2022-08-01T08:39:09.824Z,101910.47
2022-08-01T08:41:40.127Z,101911.47
2022-08-01T08:44:10.839Z,101917.31
2022-08-01T08:46:42.479Z,101911.58
2022-08-01T08:49:11.387Z,101915.83
2022-08-01T08:51:42.460Z,101921.15
2022-08-01T08:54:12.659Z,101921.31000000001
2022-08-01T08:56:41.897Z,101927.25
2022-08-01T08:59:13.209Z,101926.61
2022-08-01T09:01:40.452Z,101930.94
2022-08-01T09:04:11.201Z,101940.44
2022-08-01T09:06:40.455Z,101938.28
2022-08-01T09:09:10.732Z,101936.91
2022-08-01T09:11:39.965Z,101940.59
2022-08-01T09:14:11.886Z,101941.76
2022-08-01T09:16:47.952Z,101939.72
2022-08-01T09:19:16.132Z,101942.97
2022-08-01T09:21:51.958Z,101941.24
2022-08-01T09:24:15.252Z,101936.08
2022-08-01T09:26:40.750Z,101943.84
2022-08-01T09:29:38.060Z,101947.09
2022-08-01T09:31:42.368Z,101947.24
2022-08-01T09:34:10.721Z,101949.36
2022-08-01T09:36:51.425Z,101946.27
2022-08-01T09:39:13.681Z,101947.33
2022-08-01T09:41:40.529Z,101950.01
2022-08-01T09:44:10.275Z,101944.94
2022-08-01T09:46:50.980Z,101951.11
2022-08-01T09:49:10.916Z,101957.19
2022-08-01T09:51:59.767Z,101953.59999999999
2022-08-01T09:54:09.900Z,101959.06
2022-08-01T09:56:42.489Z,101968.23000000001
2022-08-01T09:59:10.073Z,101967.74
2022-08-01T10:01:45.737Z,101967.6
2022-08-01T10:04:11.749Z,101966.97
2022-08-01T10:06:42.814Z,101976.19
2022-08-01T10:09:11.899Z,101972.94
2022-08-01T10:11:42.188Z,101969.9
2022-08-01T10:14:12.190Z,101974.87999999999
2022-08-01T10:16:40.395Z,101973.6
2022-08-01T10:19:11.339Z,101976.39
2022-08-01T10:21:58.593Z,101967.02
2022-08-01T10:24:11.298Z,101973.06999999999
2022-08-01T10:26:40.637Z,101971.41
2022-08-01T10:29:46.838Z,101975.11
2022-08-01T10:31:39.974Z,101971.78
2022-08-01T10:34:11.285Z,101973.27
2022-08-01T10:36:40.873Z,101971.31000000001
2022-08-01T10:39:10.960Z,101973.75
2022-08-01T10:41:41.575Z,101976.81999999999
2022-08-01T10:44:09.975Z,101971.08
2022-08-01T10:46:46.758Z,101969.98
2022-08-01T10:49:13.399Z,101973.03
2022-08-01T10:51:51.346Z,101974.97
2022-08-01T10:54:11.983Z,101980.44
2022-08-01T10:56:43.943Z,101970.26
2022-08-01T10:59:11.918Z,101969.76
2022-08-01T11:01:44.749Z,101970.33
2022-08-01T11:04:16.649Z,101969.5
2022-08-01T11:06:46.399Z,101972.34999999999
2022-08-01T11:09:24.552Z,101978.7
2022-08-01T11:11:57.517Z,101976.61
2022-08-01T11:14:11.886Z,101980.83
2022-08-01T11:16:40.759Z,101973.1
2022-08-01T11:19:10.666Z,101971.25
2022-08-01T11:22:03.803Z,101973.99
2022-08-01T11:24:09.938Z,101979.1
2022-08-01T11:26:59.658Z,101977.94
2022-08-01T11:29:19.926Z,101974.8
2022-08-01T11:31:40.865Z,101980.89
2022-08-01T11:34:10.244Z,101974.58
2022-08-01T11:36:58.601Z,101972.56999999999
2022-08-01T11:39:16.738Z,101970.97
2022-08-01T11:41:41.212Z,101976.15
2022-08-01T11:44:13.410Z,101979.51000000001
2022-08-01T11:46:52.945Z,101977.61
2022-08-01T11:49:29.655Z,101979.04999999999
2022-08-01T11:51:39.970Z,101976.01
2022-08-01T11:54:10.053Z,101978.02
2022-08-01T11:56:42.958Z,101972.6
2022-08-01T11:59:15.177Z,101973.78
2022-08-01T12:01:41.324Z,101977.08
2022-08-01T12:04:09.931Z,101977.66
2022-08-01T12:06:40.675Z,101982.95000000001
2022-08-01T12:09:19.426Z,101985.76000000001
2022-08-01T12:11:40.067Z,101986.95
2022-08-01T12:14:15.164Z,101983.15
2022-08-01T12:16:39.945Z,101976.84000000001
2022-08-01T12:19:11.589Z,101971.77
2022-08-01T12:21:40.185Z,101974.56
2022-08-01T12:24:09.910Z,101978.35
2022-08-01T12:26:40.846Z,101979.58
2022-08-01T12:29:10.061Z,101973.67
2022-08-01T12:31:40.012Z,101975.64
2022-08-01T12:34:28.037Z,101977.39
2022-08-01T12:36:39.951Z,101976.98000000001
2022-08-01T12:39:09.981Z,101969.81
2022-08-01T12:41:43.172Z,101970.56
2022-08-01T12:44:14.050Z,101977.48
2022-08-01T12:46:44.368Z,101976.84000000001
2022-08-01T12:49:10.506Z,101970.56999999999
2022-08-01T12:51:40.283Z,101973.47
2022-08-01T12:54:10.179Z,101971.78
2022-08-01T12:56:40.096Z,101974.27
2022-08-01T12:59:20.436Z,101967.86
2022-08-01T13:01:42.091Z,101964.56
2022-08-01T13:04:09.924Z,101971.04000000001
2022-08-01T13:06:40.004Z,101970.48
2022-08-01T13:09:11.510Z,101968.16
2022-08-01T13:11:54.019Z,101965.48
2022-08-01T13:14:10.120Z,101971.04000000001
2022-08-01T13:16:56.939Z,101967.58
2022-08-01T13:19:09.966Z,101968.09
2022-08-01T13:21:55.064Z,101966.17
2022-08-01T13:24:12.183Z,101960.85
2022-08-01T13:26:42.200Z,101961.1
2022-08-01T13:29:11.738Z,101959.92
2022-08-01T13:31:41.119Z,101963.93000000001
2022-08-01T13:34:11.641Z,101960.39
2022-08-01T13:36:46.867Z,101962.05
2022-08-01T13:39:19.991Z,101960.74
2022-08-01T13:41:40.087Z,101960.63
2022-08-01T13:44:10.648Z,101957.59000000001
2022-08-01T13:46:49.517Z,101956.09
2022-08-01T13:49:16.343Z,101959.74
2022-08-01T13:51:40.479Z,101961.64
2022-08-01T13:54:10.205Z,101958.31
2022-08-01T13:56:40.085Z,101958.31
2022-08-01T13:59:10.327Z,101961.6
2022-08-01T14:01:40.263Z,101963.28
2022-08-01T14:04:10.189Z,101966.94
2022-08-01T14:06:40.006Z,101967.75
2022-08-01T14:09:17.521Z,101969.7
2022-08-01T14:11:40.192Z,101969.61
2022-08-01T14:14:09.947Z,101971.11
2022-08-01T14:16:40.244Z,101967.52
2022-08-01T14:19:09.964Z,101964.26
2022-08-01T14:21:40.072Z,101963.11
2022-08-01T14:24:10.228Z,101961.63
2022-08-01T14:26:39.966Z,101965.55
2022-08-01T14:29:10.240Z,101960.79999999999
2022-08-01T14:31:40.494Z,101959.07999999999
2022-08-01T14:34:10.057Z,101961.42
2022-08-01T14:36:40.163Z,101964.09999999999
2022-08-01T14:39:15.101Z,101959.25
2022-08-01T14:41:40.370Z,101950.93000000001
2022-08-01T14:44:10.114Z,101947.22
2022-08-01T14:46:57.092Z,101942.15000000001
2022-08-01T14:49:10.530Z,101943.34
2022-08-01T14:51:39.992Z,101945.28
2022-08-01T14:54:10.073Z,101946.44
2022-08-01T14:56:40.035Z,101944.64
2022-08-01T14:59:21.050Z,101948.24
2022-08-01T15:01:40.304Z,101953.67
2022-08-01T15:04:10.076Z,101947.63
2022-08-01T15:06:40.282Z,101945.89
2022-08-01T15:09:10.465Z,101943.8
2022-08-01T15:11:40.111Z,101944.26
2022-08-01T15:14:19.971Z,101946.33
2022-08-01T15:16:40.132Z,101947.14
2022-08-01T15:19:10.072Z,101948.5
2022-08-01T15:21:42.011Z,101952.06
2022-08-01T15:24:10.058Z,101952.86
2022-08-01T15:26:40.132Z,101950.5
2022-08-01T15:29:10.036Z,101955.84
2022-08-01T15:31:40.217Z,101959.5
2022-08-01T15:34:10.051Z,101960.13
2022-08-01T15:36:42.074Z,101958.56999999999
2022-08-01T15:39:10.266Z,101959.11
2022-08-01T15:41:40.025Z,101963.47
2022-08-01T15:44:10.369Z,101960.46
2022-08-01T15:46:40.260Z,101963.01
2022-08-01T15:49:10.725Z,101963.25
2022-08-01T15:51:40.830Z,101961.55
2022-08-01T15:54:14.591Z,101961.92
2022-08-01T15:56:40.119Z,101961.37999999999
2022-08-01T15:59:10.897Z,101967.35
2022-08-01T16:01:40.622Z,101966.35
2022-08-01T16:04:10.210Z,101965.91
2022-08-01T16:06:40.137Z,101965.95999999999
2022-08-01T16:09:10.215Z,101967.3
2022-08-01T16:11:43.078Z,101964.37
2022-08-01T16:14:10.178Z,101962.45999999999
2022-08-01T16:16:40.846Z,101963.4
2022-08-01T16:19:10.113Z,101956.66
2022-08-01T16:21:42.054Z,101950.48000000001
2022-08-01T16:24:10.109Z,101950.16
2022-08-01T16:26:40.191Z,101950.14
2022-08-01T16:29:10.517Z,101953.74
2022-08-01T16:31:48.039Z,101956.62
2022-08-01T16:34:10.259Z,101953.88
2022-08-01T16:36:40.102Z,101951.09
2022-08-01T16:39:10.416Z,101948.38
2022-08-01T16:41:41.564Z,101941.89
2022-08-01T16:44:10.126Z,101938.5
2022-08-01T16:46:40.234Z,101942.48999999999
2022-08-01T16:49:10.194Z,101936.65999999999
2022-08-01T16:51:48.254Z,101930.47
2022-08-01T16:54:25.689Z,101931.7
2022-08-01T16:56:40.178Z,101936.31
2022-08-01T16:59:10.170Z,101936.7
2022-08-01T17:01:58.863Z,101940.09
2022-08-01T17:04:10.235Z,101938.67
2022-08-01T17:06:40.202Z,101941.15000000001
2022-08-01T17:09:10.147Z,101943.02
2022-08-01T17:11:40.280Z,101943.26999999999
2022-08-01T17:14:10.103Z,101941.76999999999
2022-08-01T17:16:40.260Z,101944.7
2022-08-01T17:19:10.200Z,101945.48
2022-08-01T17:21:41.533Z,101949.05
2022-08-01T17:24:10.241Z,101947.75
2022-08-01T17:26:40.089Z,101943.12999999999
2022-08-01T17:29:10.199Z,101941.78
2022-08-01T17:31:40.165Z,101941.04999999999
2022-08-01T17:34:10.085Z,101944.81
2022-08-01T17:36:40.598Z,101945.7
2022-08-01T17:39:11.534Z,101948.01
2022-08-01T17:41:40.782Z,101947.97
2022-08-01T17:44:10.472Z,101950.0
2022-08-01T17:46:40.152Z,101950.61
2022-08-01T17:49:10.336Z,101951.08
2022-08-01T17:51:40.323Z,101953.66
2022-08-01T17:56:44.268Z,101951.08
2022-08-01T17:59:10.086Z,101952.48
2022-08-01T18:01:45.253Z,101952.81999999999
2022-08-01T18:04:10.524Z,101955.78
2022-08-01T18:06:40.293Z,101951.76
2022-08-01T18:09:11.252Z,101953.38
2022-08-01T18:11:40.090Z,101950.12000000001
2022-08-01T18:14:10.413Z,101951.61
2022-08-01T18:16:40.295Z,101952.06
2022-08-01T18:19:10.209Z,101954.40999999999
2022-08-01T18:21:42.974Z,101963.92
2022-08-01T18:24:10.109Z,101969.76
2022-08-01T18:26:40.464Z,101962.8
2022-08-01T18:29:10.540Z,101957.7
2022-08-01T18:31:40.204Z,101952.87
2022-08-01T18:34:10.397Z,101950.79
2022-08-01T18:36:40.485Z,101951.92
2022-08-01T18:39:10.810Z,101954.08
2022-08-01T18:41:40.243Z,101949.37999999999
2022-08-01T18:44:10.212Z,101952.71
2022-08-01T18:46:41.090Z,101954.03
2022-08-01T18:49:11.856Z,101950.84000000001
2022-08-01T18:51:44.235Z,101950.59999999999
2022-08-01T18:54:10.461Z,101950.36
2022-08-01T18:56:41.176Z,101950.89
2022-08-01T18:59:10.526Z,101955.44
2022-08-01T19:01:40.567Z,101956.89
2022-08-01T19:04:10.280Z,101956.47
2022-08-01T19:06:40.601Z,101953.77
2022-08-01T19:09:10.102Z,101954.75
2022-08-01T19:11:40.671Z,101953.04
2022-08-01T19:14:10.134Z,101955.36
2022-08-01T19:16:40.188Z,101960.69
2022-08-01T19:19:10.527Z,101959.69
2022-08-01T19:21:44.668Z,101959.92
2022-08-01T19:24:17.602Z,101963.47
2022-08-01T19:26:45.781Z,101960.16
2022-08-01T19:29:16.493Z,101959.59
2022-08-01T19:31:48.546Z,101962.95
2022-08-01T19:34:11.758Z,101967.67
2022-08-01T19:36:42.545Z,101965.99
2022-08-01T19:39:10.716Z,101967.21
2022-08-01T19:41:40.652Z,101971.14
2022-08-01T19:44:12.123Z,101975.51
2022-08-01T19:46:41.091Z,101982.92
2022-08-01T19:49:12.513Z,101981.87000000001
2022-08-01T19:51:46.149Z,101980.65000000001
2022-08-01T19:54:11.390Z,101980.8
2022-08-01T19:56:44.234Z,101980.08
2022-08-01T19:59:14.889Z,101981.73000000001
2022-08-01T20:01:40.179Z,101982.48
2022-08-01T20:04:10.957Z,101980.59
2022-08-01T20:06:40.245Z,101975.06
2022-08-01T20:09:12.019Z,101967.98999999999
2022-08-01T20:11:44.237Z,101964.14
2022-08-01T20:14:12.240Z,101962.40000000001
2022-08-01T20:16:41.230Z,101959.86
2022-08-01T20:19:11.543Z,101960.19
2022-08-01T20:21:44.414Z,101958.53
2022-08-01T20:24:14.121Z,101959.36
2022-08-01T20:26:42.038Z,101960.32
2022-08-01T20:29:11.387Z,101955.11
2022-08-01T20:31:46.473Z,101964.89
2022-08-01T20:34:13.557Z,101965.68
2022-08-01T20:36:40.501Z,101967.1
2022-08-01T20:39:12.768Z,101972.06
2022-08-01T20:41:41.725Z,101978.19
2022-08-01T20:44:10.845Z,101979.74
2022-08-01T20:46:40.534Z,101980.58
2022-08-01T20:49:11.083Z,101986.89
2022-08-01T20:51:42.560Z,101983.29
2022-08-01T20:54:10.607Z,101983.17
2022-08-01T20:56:49.916Z,101984.54000000001
2022-08-01T20:59:54.705Z,101981.52
2022-08-01T21:01:46.913Z,101982.9
2022-08-01T21:04:27.539Z,101989.9
2022-08-01T21:06:44.962Z,101990.13
2022-08-01T21:09:13.076Z,101990.64
2022-08-01T21:14:13.326Z,101991.06
2022-08-01T21:16:45.382Z,101987.87
2022-08-01T21:19:20.887Z,101981.8
2022-08-01T21:21:47.407Z,101979.79000000001
2022-08-01T21:24:16.130Z,101979.69
2022-08-01T21:26:42.917Z,101974.03
2022-08-01T21:29:11.314Z,101974.41
2022-08-01T21:31:41.455Z,101977.47
2022-08-01T21:34:11.246Z,101978.3
2022-08-01T21:36:43.991Z,101979.8
2022-08-01T21:39:10.622Z,101983.29
2022-08-01T21:42:04.953Z,101978.39
2022-08-01T21:44:13.563Z,101973.13
2022-08-01T21:46:40.345Z,101967.39
2022-08-01T21:49:11.448Z,101963.81
2022-08-01T21:51:44.588Z,101964.68
2022-08-01T21:54:20.496Z,101963.36
2022-08-01T21:56:48.685Z,101962.55
2022-08-01T21:59:23.030Z,101959.67000000001
2022-08-01T22:01:51.379Z,101957.51000000001
2022-08-01T22:04:13.973Z,101952.4
2022-08-01T22:06:43.262Z,101953.03
2022-08-01T22:09:13.012Z,101955.19
2022-08-01T22:14:14.029Z,101955.48999999999
2022-08-01T22:16:40.765Z,101956.76
2022-08-01T22:19:10.396Z,101953.99
2022-08-01T22:21:41.018Z,101955.2
2022-08-01T22:24:11.387Z,101953.59
2022-08-01T22:26:40.724Z,101953.91
2022-08-01T22:29:11.906Z,101954.21
2022-08-01T22:31:40.747Z,101945.58
2022-08-01T22:34:12.604Z,101948.13
2022-08-01T22:36:40.401Z,101943.31
2022-08-01T22:39:14.886Z,101943.11
2022-08-01T22:42:01.927Z,101943.19
2022-08-01T22:46:52.144Z,101944.95
2022-08-01T22:49:18.537Z,101940.47
2022-08-01T22:51:54.638Z,101939.15
2022-08-01T22:54:13.004Z,101940.23
2022-08-01T22:56:44.113Z,101941.8
2022-08-01T22:59:15.809Z,101940.37
2022-08-01T23:01:48.004Z,101940.72
2022-08-01T23:06:42.087Z,101930.98
2022-08-01T23:09:11.195Z,101924.87999999999
2022-08-01T23:11:40.267Z,101923.63
2022-08-01T23:14:10.694Z,101925.62000000001
2022-08-01T23:16:41.604Z,101926.09999999999
2022-08-01T23:19:10.826Z,101927.23
2022-08-01T23:24:12.720Z,101919.9
2022-08-01T23:26:41.276Z,101925.58
2022-08-01T23:29:10.899Z,101925.28
2022-08-01T23:32:00.232Z,101924.2
2022-08-01T23:34:10.206Z,101920.36
2022-08-01T23:36:40.642Z,101920.03
2022-08-01T23:39:10.304Z,101917.58
2022-08-01T23:41:56.145Z,101919.95
2022-08-01T23:44:10.300Z,101916.6
2022-08-01T23:46:40.234Z,101918.06
2022-08-01T23:49:10.512Z,101918.34
2022-08-01T23:51:40.282Z,101913.98000000001
2022-08-01T23:54:10.285Z,101909.16
2022-08-01T23:56:40.351Z,101898.35
2022-08-01T23:59:12.129Z,101898.94
